Orange, Ohio
Current Conditions -  °F | °C
As of 9:45 AM on Thursday 30 Oct 2014 (Local Time) from KCGF Reporting Station
Overcast Overcast  
Wind Chill: 45°   Ceiling: 2400
Heat Index: 48°   Visibility: 10mi
Dew Point: 39°   Wind: 7mph
Humidity: 71%   Direction: 340°NNW
Pressure: 30.13"   Gusts: NA
Location:  41.4475°N, 81.4018°W
Report Text: KCGF 301345Z 34006KT 10SM BKN024 OVC040 09/04 A3013
Loading
Personal Weather Stations






























Interactive Weather Map New forecast layout! Learn more

10-Day Weather Forecast

Advertisements
Track Severe Weather on mobile